createdAt,value
2019-05-15T00:01:58.878Z,7.70
2019-05-15T00:04:28.266Z,7.70
2019-05-15T00:06:58.280Z,7.70
2019-05-15T00:09:28.611Z,7.70
2019-05-15T00:12:00.914Z,7.80
2019-05-15T00:14:30.331Z,7.80
2019-05-15T00:16:59.712Z,7.90
2019-05-15T00:19:29.133Z,7.90
2019-05-15T00:21:58.659Z,7.90
2019-05-15T00:24:28.768Z,8.00
2019-05-15T00:26:58.849Z,8.00
2019-05-15T00:29:28.895Z,7.90
2019-05-15T00:31:58.900Z,7.90
2019-05-15T00:34:28.645Z,7.90
2019-05-15T00:36:58.461Z,7.90
2019-05-15T00:39:28.412Z,7.90
2019-05-15T00:41:59.011Z,7.90
2019-05-15T00:44:28.600Z,8.00
2019-05-15T00:46:58.323Z,8.00
2019-05-15T00:49:28.986Z,7.90
2019-05-15T00:51:59.130Z,7.90
2019-05-15T00:54:28.579Z,7.90
2019-05-15T00:56:58.052Z,7.90
2019-05-15T00:59:29.927Z,8.00
2019-05-15T01:01:59.417Z,8.00
2019-05-15T01:04:28.921Z,8.00
2019-05-15T01:06:58.850Z,8.00
2019-05-15T01:09:29.235Z,8.00
2019-05-15T01:11:58.781Z,7.90
2019-05-15T01:14:28.175Z,7.90
2019-05-15T01:16:58.237Z,7.90
2019-05-15T01:19:28.752Z,7.80
2019-05-15T01:21:59.043Z,7.70
2019-05-15T01:24:28.468Z,7.60
2019-05-15T01:26:58.488Z,7.60
2019-05-15T01:29:40.915Z,7.60
2019-05-15T01:31:59.311Z,7.50
2019-05-15T01:34:29.380Z,7.50
2019-05-15T01:36:59.189Z,7.50
2019-05-15T01:39:29.054Z,7.50
2019-05-15T01:41:58.592Z,7.50
2019-05-15T01:44:28.685Z,7.40
2019-05-15T01:46:59.047Z,7.40
2019-05-15T01:49:28.528Z,7.40
2019-05-15T01:51:58.628Z,7.40
2019-05-15T01:54:28.844Z,7.40
2019-05-15T01:56:58.867Z,7.40
2019-05-15T01:59:28.505Z,7.40
2019-05-15T02:01:59.045Z,7.40
2019-05-15T02:04:28.975Z,7.40
2019-05-15T02:06:58.971Z,7.40
2019-05-15T02:09:28.434Z,7.40
2019-05-15T02:11:58.204Z,7.40
2019-05-15T02:14:28.478Z,7.40
2019-05-15T02:16:59.131Z,7.30
2019-05-15T02:19:28.854Z,7.20
2019-05-15T02:21:58.331Z,7.20
2019-05-15T02:24:28.463Z,7.20
2019-05-15T02:26:58.840Z,7.10
2019-05-15T02:29:28.694Z,7.10
2019-05-15T02:31:59.191Z,7.00
2019-05-15T02:34:30.073Z,7.00
2019-05-15T02:37:00.249Z,7.00
2019-05-15T02:39:29.891Z,7.00
2019-05-15T02:41:59.777Z,6.90
2019-05-15T02:44:29.417Z,6.90
2019-05-15T02:46:59.006Z,7.00
2019-05-15T02:49:30.284Z,7.00
2019-05-15T02:52:00.206Z,7.00
2019-05-15T02:54:30.236Z,7.00
2019-05-15T02:56:59.704Z,7.00
2019-05-15T02:59:29.366Z,7.00
2019-05-15T03:01:59.483Z,7.00
2019-05-15T03:04:29.406Z,7.00
2019-05-15T03:07:00.289Z,7.00
2019-05-15T03:09:30.189Z,6.90
2019-05-15T03:11:59.731Z,6.80
2019-05-15T03:14:29.350Z,6.80
2019-05-15T03:16:59.641Z,6.70
2019-05-15T03:19:30.032Z,6.70
2019-05-15T03:22:00.011Z,6.60
2019-05-15T03:24:31.441Z,6.60
2019-05-15T03:27:00.881Z,6.60
2019-05-15T03:29:30.255Z,6.60
2019-05-15T03:32:15.440Z,6.60
2019-05-15T03:34:38.945Z,6.50
2019-05-15T03:37:03.817Z,6.50
2019-05-15T03:39:33.250Z,6.50
2019-05-15T03:42:02.640Z,6.60
2019-05-15T03:44:32.019Z,6.70
2019-05-15T03:47:01.306Z,6.80
2019-05-15T03:49:30.755Z,6.90
2019-05-15T03:52:00.138Z,6.80
2019-05-15T03:54:29.625Z,6.80
2019-05-15T03:56:59.009Z,6.80
2019-05-15T03:59:29.373Z,6.80
2019-05-15T04:02:00.021Z,6.80
2019-05-15T04:04:29.845Z,6.90
2019-05-15T04:06:59.760Z,6.90
2019-05-15T04:09:29.583Z,6.90
2019-05-15T04:12:00.044Z,6.90
2019-05-15T04:14:29.848Z,6.90
2019-05-15T04:16:59.749Z,6.90
2019-05-15T04:19:29.821Z,6.90
2019-05-15T04:22:00.242Z,7.00
2019-05-15T04:24:31.908Z,7.00
2019-05-15T04:27:06.231Z,7.00
2019-05-15T04:29:34.744Z,7.00
2019-05-15T04:32:05.969Z,7.10
2019-05-15T04:34:35.193Z,7.10
2019-05-15T04:37:04.621Z,7.20
2019-05-15T04:39:33.976Z,7.20
2019-05-15T04:42:03.378Z,7.30
2019-05-15T04:44:32.795Z,7.40
2019-05-15T04:47:05.234Z,7.50
2019-05-15T04:49:34.638Z,7.60
2019-05-15T04:52:04.112Z,7.70
2019-05-15T04:54:33.463Z,7.80
2019-05-15T04:57:02.861Z,7.80
2019-05-15T04:59:32.291Z,7.70
2019-05-15T05:02:16.259Z,7.70
2019-05-15T05:04:33.202Z,7.70
2019-05-15T05:07:02.510Z,7.70
2019-05-15T05:09:32.346Z,7.70
2019-05-15T05:12:01.719Z,7.70
2019-05-15T05:14:31.144Z,7.70
2019-05-15T05:17:00.575Z,7.60
2019-05-15T05:19:29.952Z,7.60
2019-05-15T05:21:59.403Z,7.70
2019-05-15T05:24:28.783Z,7.70
2019-05-15T05:26:58.252Z,7.70
2019-05-15T05:29:27.978Z,7.80
2019-05-15T05:31:58.596Z,7.90
2019-05-15T05:34:28.353Z,8.00
2019-05-15T05:36:58.935Z,8.10
2019-05-15T05:39:29.408Z,8.20
2019-05-15T05:41:58.998Z,8.40
2019-05-15T05:44:29.176Z,8.60
2019-05-15T05:46:58.664Z,8.70
2019-05-15T05:49:28.854Z,8.80
2019-05-15T05:51:58.733Z,8.80
2019-05-15T05:54:28.808Z,8.80
2019-05-15T05:56:58.660Z,8.80
2019-05-15T05:59:28.561Z,8.80
2019-05-15T06:01:58.918Z,8.90
2019-05-15T06:04:28.540Z,9.00
2019-05-15T06:07:07.115Z,9.00
2019-05-15T06:09:28.955Z,9.10
2019-05-15T06:11:58.412Z,9.20
2019-05-15T06:14:28.845Z,9.30
2019-05-15T06:16:58.874Z,9.50
2019-05-15T06:19:31.224Z,9.50
2019-05-15T06:22:00.976Z,9.60
2019-05-15T06:24:30.769Z,9.70
2019-05-15T06:27:00.264Z,9.80
2019-05-15T06:29:29.631Z,10.00
2019-05-15T06:31:59.175Z,10.10
2019-05-15T06:34:28.675Z,10.20
2019-05-15T06:36:58.845Z,10.30
2019-05-15T06:39:28.451Z,10.40
2019-05-15T06:41:58.875Z,10.40
2019-05-15T06:44:28.378Z,10.50
2019-05-15T06:46:58.782Z,10.60
2019-05-15T06:49:28.654Z,10.70
2019-05-15T06:51:58.245Z,10.70
2019-05-15T06:54:28.397Z,10.70
2019-05-15T06:56:58.384Z,10.70
2019-05-15T06:59:28.697Z,10.70
2019-05-15T07:01:59.422Z,10.60
2019-05-15T07:04:28.951Z,10.60
2019-05-15T07:06:58.467Z,10.60
2019-05-15T07:09:28.551Z,10.60
2019-05-15T07:11:59.096Z,10.60
2019-05-15T07:14:28.883Z,10.60
2019-05-15T07:16:59.186Z,10.60
2019-05-15T07:19:28.690Z,10.50
2019-05-15T07:21:58.238Z,10.40
2019-05-15T07:24:28.911Z,10.40
2019-05-15T07:26:59.115Z,10.50
2019-05-15T07:29:29.257Z,10.70
2019-05-15T07:31:58.833Z,10.80
2019-05-15T07:34:28.471Z,10.90
2019-05-15T07:36:59.118Z,11.10
2019-05-15T07:39:28.937Z,11.20
2019-05-15T07:41:58.371Z,11.20
2019-05-15T07:44:28.285Z,11.20
2019-05-15T07:46:58.380Z,11.30
2019-05-15T07:49:28.869Z,11.20
2019-05-15T07:51:59.161Z,11.20
2019-05-15T07:54:28.903Z,11.30
2019-05-15T07:56:58.351Z,11.30
2019-05-15T07:59:28.044Z,11.30
2019-05-15T08:01:58.168Z,11.40
2019-05-15T08:04:30.714Z,11.50
2019-05-15T08:06:59.286Z,11.60
2019-05-15T08:09:28.986Z,11.60
2019-05-15T08:12:00.102Z,11.70
2019-05-15T08:14:29.411Z,11.70
2019-05-15T08:16:59.371Z,11.70
2019-05-15T08:19:28.953Z,11.80
2019-05-15T08:21:58.395Z,11.90
2019-05-15T08:24:29.839Z,11.90
2019-05-15T08:26:58.842Z,12.10
2019-05-15T08:29:29.367Z,12.20
2019-05-15T08:31:59.114Z,12.40
2019-05-15T08:34:28.552Z,12.50
2019-05-15T08:36:58.984Z,12.60
2019-05-15T08:39:28.615Z,12.70
2019-05-15T08:41:58.491Z,12.70
2019-05-15T08:44:29.373Z,12.70
2019-05-15T08:46:59.204Z,12.60
2019-05-15T08:49:28.623Z,12.60
2019-05-15T08:51:58.426Z,12.60
2019-05-15T08:54:28.989Z,12.60
2019-05-15T08:56:59.151Z,12.60
2019-05-15T08:59:29.455Z,12.80
2019-05-15T09:01:59.063Z,12.90
2019-05-15T09:04:34.560Z,13.00
2019-05-15T09:07:01.322Z,13.00
2019-05-15T09:09:30.783Z,13.00
2019-05-15T09:12:00.198Z,13.10
2019-05-15T09:14:29.583Z,13.20
2019-05-15T09:16:59.012Z,13.40
2019-05-15T09:19:28.396Z,13.40
2019-05-15T09:21:58.458Z,13.60
2019-05-15T09:24:28.723Z,13.70
2019-05-15T09:26:59.544Z,13.70
2019-05-15T09:29:29.182Z,13.70
2019-05-15T09:31:59.004Z,13.80
2019-05-15T09:34:44.950Z,13.90
2019-05-15T09:37:00.093Z,13.90
2019-05-15T09:39:29.595Z,14.00
2019-05-15T09:41:59.020Z,14.00
2019-05-15T09:44:28.495Z,14.00
2019-05-15T09:46:58.473Z,14.10
2019-05-15T09:49:29.604Z,14.30
2019-05-15T09:51:59.016Z,14.50
2019-05-15T09:54:29.375Z,14.60
2019-05-15T09:56:58.845Z,14.60
2019-05-15T09:59:28.322Z,14.70
2019-05-15T10:01:58.854Z,14.80
2019-05-15T10:04:29.131Z,14.90
2019-05-15T10:06:58.758Z,14.90
2019-05-15T10:09:28.600Z,14.90
2019-05-15T10:11:58.967Z,15.00
2019-05-15T10:14:29.636Z,15.10
2019-05-15T10:16:59.682Z,15.20
2019-05-15T10:19:29.967Z,15.40
2019-05-15T10:21:59.733Z,15.70
2019-05-15T10:24:29.169Z,15.80
2019-05-15T10:26:59.112Z,15.90
2019-05-15T10:29:28.666Z,16.10
2019-05-15T10:31:58.433Z,16.20
2019-05-15T10:34:28.921Z,16.30
2019-05-15T10:36:58.883Z,16.60
2019-05-15T10:39:28.905Z,16.90
2019-05-15T10:41:58.535Z,17.00
2019-05-15T10:44:28.567Z,17.20
2019-05-15T10:46:58.576Z,17.30
2019-05-15T10:49:28.328Z,17.30
2019-05-15T10:51:57.696Z,17.10
2019-05-15T10:54:29.294Z,17.00
2019-05-15T10:57:00.863Z,16.90
2019-05-15T10:59:29.784Z,16.70
2019-05-15T11:01:59.254Z,16.50
2019-05-15T11:04:28.962Z,16.70
2019-05-15T11:06:58.380Z,16.60
2019-05-15T11:09:28.694Z,16.50
2019-05-15T11:11:58.469Z,16.60
2019-05-15T11:14:28.633Z,16.60
2019-05-15T11:16:58.984Z,16.30
2019-05-15T11:19:35.728Z,16.10
2019-05-15T11:21:59.543Z,16.20
2019-05-15T11:24:32.214Z,16.30
2019-05-15T11:27:00.009Z,16.40
2019-05-15T11:29:29.451Z,16.30
2019-05-15T11:31:58.867Z,16.30
2019-05-15T11:34:28.984Z,16.20
2019-05-15T11:36:59.301Z,16.10
2019-05-15T11:39:29.025Z,15.90
2019-05-15T11:41:58.461Z,15.70
2019-05-15T11:44:28.272Z,15.60
2019-05-15T11:46:58.660Z,15.60
2019-05-15T11:49:28.988Z,15.60
2019-05-15T11:52:00.619Z,15.70
2019-05-15T11:54:29.686Z,15.80
2019-05-15T11:56:59.781Z,15.90
2019-05-15T11:59:30.123Z,16.00
2019-05-15T12:01:59.593Z,16.00
2019-05-15T12:04:33.827Z,16.10
2019-05-15T12:07:02.601Z,16.20
2019-05-15T12:09:31.189Z,16.20
2019-05-15T12:12:00.607Z,16.20
2019-05-15T12:14:30.032Z,16.30
2019-05-15T12:17:07.208Z,16.20
2019-05-15T12:19:30.632Z,16.30
2019-05-15T12:22:00.084Z,16.60
2019-05-15T12:24:35.244Z,16.80
2019-05-15T12:29:31.554Z,16.90
2019-05-15T12:32:11.702Z,17.00
2019-05-15T12:34:31.995Z,17.00
2019-05-15T12:37:01.402Z,16.90
2019-05-15T12:39:30.777Z,16.60
2019-05-15T13:02:08.772Z,15.50
2019-05-15T13:04:38.952Z,15.60
2019-05-15T13:07:14.008Z,15.70
2019-05-15T13:09:39.605Z,15.80
2019-05-15T13:12:09.035Z,15.90
2019-05-15T13:14:39.010Z,15.80
2019-05-15T13:17:08.532Z,15.80
2019-05-15T13:19:38.777Z,15.70
2019-05-15T13:22:17.960Z,15.80
2019-05-15T13:24:41.871Z,15.80
2019-05-15T13:27:11.677Z,15.60
2019-05-15T13:29:41.384Z,15.50
2019-05-15T13:32:10.844Z,15.50
2019-05-15T13:34:40.275Z,15.50
2019-05-15T13:37:09.761Z,15.40
2019-05-15T13:39:39.304Z,15.50
2019-05-15T13:42:09.353Z,15.50
2019-05-15T13:44:38.864Z,15.40
2019-05-15T13:47:08.766Z,15.30
2019-05-15T13:49:38.689Z,15.40
2019-05-15T13:52:08.628Z,15.40
2019-05-15T13:54:38.117Z,15.40
2019-05-15T13:57:08.903Z,15.50
2019-05-15T13:59:39.178Z,15.50
2019-05-15T14:02:09.025Z,15.60
2019-05-15T14:04:38.774Z,15.60
2019-05-15T14:07:08.643Z,15.70
2019-05-15T14:09:44.311Z,15.70
2019-05-15T14:12:12.415Z,15.80
2019-05-15T14:14:40.243Z,15.80
2019-05-15T14:17:09.701Z,15.90
2019-05-15T14:19:39.100Z,15.90
2019-05-15T14:22:08.466Z,15.90
2019-05-15T14:24:38.330Z,15.80
2019-05-15T14:27:08.682Z,15.70
2019-05-15T14:29:38.160Z,15.70
2019-05-15T14:32:08.122Z,15.50
2019-05-15T14:34:38.054Z,15.60
2019-05-15T14:37:08.740Z,15.70
2019-05-15T14:39:38.361Z,15.70
2019-05-15T14:42:09.095Z,15.70
2019-05-15T14:44:39.004Z,15.50
2019-05-15T14:47:08.916Z,15.50
2019-05-15T14:49:44.466Z,15.40
2019-05-15T14:52:09.682Z,15.40
2019-05-15T14:54:39.217Z,15.40
2019-05-15T14:57:08.826Z,15.40
2019-05-15T14:59:38.299Z,15.40
2019-05-15T15:02:09.065Z,15.30
2019-05-15T15:04:39.188Z,15.30
2019-05-15T15:07:08.903Z,15.30
2019-05-15T15:09:38.299Z,15.30
2019-05-15T15:12:08.212Z,15.40
2019-05-15T15:14:38.058Z,15.40
2019-05-15T15:17:07.471Z,15.40
2019-05-15T15:19:38.865Z,15.40
2019-05-15T15:22:08.703Z,15.40
2019-05-15T15:24:39.040Z,15.30
2019-05-15T15:27:08.484Z,15.40
2019-05-15T15:29:38.841Z,15.40
2019-05-15T15:32:08.409Z,15.40
2019-05-15T15:34:38.734Z,15.40
2019-05-15T15:37:08.455Z,15.20
2019-05-15T15:39:38.701Z,15.10
2019-05-15T15:42:08.720Z,15.00
2019-05-15T15:44:38.296Z,14.90
2019-05-15T15:47:08.577Z,15.00
2019-05-15T15:49:38.753Z,14.90
2019-05-15T15:52:08.735Z,14.90
2019-05-15T15:54:39.529Z,14.90
2019-05-15T15:57:09.346Z,14.90
2019-05-15T15:59:38.845Z,14.80
2019-05-15T16:02:08.926Z,14.70
2019-05-15T16:04:39.259Z,14.70
2019-05-15T16:07:09.676Z,14.70
2019-05-15T16:09:39.176Z,14.70
2019-05-15T16:12:09.675Z,14.70
2019-05-15T16:14:39.303Z,14.60
2019-05-15T16:17:08.783Z,14.50
2019-05-15T16:19:38.891Z,14.40
2019-05-15T16:22:08.965Z,14.40
2019-05-15T16:24:38.698Z,14.40
2019-05-15T16:27:09.676Z,14.40
2019-05-15T16:29:39.454Z,14.30
2019-05-15T16:32:09.048Z,14.30
2019-05-15T16:34:39.336Z,14.30
2019-05-15T16:37:09.075Z,14.30
2019-05-15T16:39:38.473Z,14.30
2019-05-15T16:42:08.074Z,14.20
2019-05-15T16:44:38.397Z,14.20
2019-05-15T16:47:08.451Z,14.20
2019-05-15T16:49:39.140Z,14.20
2019-05-15T16:52:09.185Z,14.20
2019-05-15T16:54:38.780Z,14.20
2019-05-15T16:57:09.980Z,14.10
2019-05-15T16:59:39.217Z,14.10
2019-05-15T17:02:08.965Z,14.00
2019-05-15T17:04:38.424Z,14.00
2019-05-15T17:07:07.804Z,14.00
2019-05-15T17:09:38.731Z,13.90
2019-05-15T17:12:08.890Z,13.90
2019-05-15T17:14:38.852Z,13.80
2019-05-15T17:17:08.416Z,13.70
2019-05-15T17:19:37.819Z,13.50
2019-05-15T17:22:09.400Z,13.30
2019-05-15T17:24:38.805Z,13.20
2019-05-15T17:27:11.745Z,13.10
2019-05-15T17:29:39.354Z,13.00
2019-05-15T17:32:08.849Z,13.00
2019-05-15T17:34:38.240Z,12.90
2019-05-15T17:37:07.616Z,12.90
2019-05-15T17:39:40.921Z,12.90
2019-05-15T17:42:08.047Z,12.70
2019-05-15T17:44:38.176Z,12.60
2019-05-15T17:47:09.660Z,12.60
2019-05-15T17:49:38.840Z,12.50
2019-05-15T17:52:08.889Z,12.50
2019-05-15T17:54:38.372Z,12.40
2019-05-15T17:57:09.225Z,12.40
2019-05-15T17:59:38.698Z,12.30
2019-05-15T18:02:08.691Z,12.10
2019-05-15T18:04:38.694Z,12.10
2019-05-15T18:07:08.755Z,12.00
2019-05-15T18:09:50.355Z,11.90
2019-05-15T18:12:10.806Z,11.90
2019-05-15T18:14:40.410Z,11.80
2019-05-15T18:17:09.800Z,11.80
2019-05-15T18:19:39.174Z,11.80
2019-05-15T18:22:09.609Z,11.80
2019-05-15T18:24:38.998Z,11.80
2019-05-15T18:27:08.588Z,11.80
2019-05-15T18:29:38.640Z,11.80
2019-05-15T18:32:08.629Z,11.80
2019-05-15T18:34:39.578Z,11.70
2019-05-15T18:37:09.126Z,11.70
2019-05-15T18:39:38.964Z,11.70
2019-05-15T18:42:08.631Z,11.60
2019-05-15T18:44:39.363Z,11.50
2019-05-15T18:47:08.783Z,11.50
2019-05-15T18:49:38.148Z,11.40
2019-05-15T18:52:08.784Z,11.30
2019-05-15T18:54:38.746Z,11.30
2019-05-15T18:57:08.581Z,11.30
2019-05-15T18:59:37.922Z,11.30
2019-05-15T19:02:08.024Z,11.20
2019-05-15T19:04:38.366Z,11.20
2019-05-15T19:07:08.870Z,11.20
2019-05-15T19:09:38.745Z,11.20
2019-05-15T19:12:09.703Z,11.30
2019-05-15T19:14:39.592Z,11.30
2019-05-15T19:17:09.009Z,11.30
2019-05-15T19:19:38.792Z,11.20
2019-05-15T19:22:08.320Z,11.20
2019-05-15T19:24:39.948Z,11.20
2019-05-15T19:27:08.741Z,11.10
2019-05-15T19:29:38.149Z,11.00
2019-05-15T19:32:10.653Z,11.00
2019-05-15T19:34:38.863Z,11.00
2019-05-15T19:37:08.283Z,11.00
2019-05-15T19:39:38.546Z,11.00
2019-05-15T19:42:08.878Z,11.00
2019-05-15T19:44:38.455Z,10.90
2019-05-15T19:47:08.054Z,10.90
2019-05-15T19:49:37.838Z,10.90
2019-05-15T19:52:08.526Z,10.80
2019-05-15T19:54:38.042Z,10.80
2019-05-15T19:57:08.054Z,10.80
2019-05-15T19:59:38.173Z,10.80
2019-05-15T20:02:08.524Z,10.90
2019-05-15T20:04:38.520Z,10.90
2019-05-15T20:07:08.107Z,10.90
2019-05-15T20:09:38.349Z,10.80
2019-05-15T20:12:09.030Z,10.80
2019-05-15T20:14:38.919Z,10.70
2019-05-15T20:17:08.362Z,10.80
2019-05-15T20:19:38.263Z,10.70
2019-05-15T20:22:08.121Z,10.70
2019-05-15T20:24:38.232Z,10.70
2019-05-15T20:27:08.546Z,10.70
2019-05-15T20:29:38.390Z,10.70
2019-05-15T20:32:07.999Z,10.70
2019-05-15T20:34:37.908Z,10.70
2019-05-15T20:37:07.406Z,10.60
2019-05-15T20:39:38.615Z,10.60
2019-05-15T20:42:08.813Z,10.50
2019-05-15T20:44:38.314Z,10.50
2019-05-15T20:47:08.401Z,10.50
2019-05-15T20:49:37.888Z,10.50
2019-05-15T20:52:07.450Z,10.40
2019-05-15T20:54:38.636Z,10.40
2019-05-15T20:57:08.832Z,10.30
2019-05-15T20:59:38.762Z,10.30
2019-05-15T21:02:08.273Z,10.30
2019-05-15T21:04:38.491Z,10.30
2019-05-15T21:07:10.119Z,10.30
2019-05-15T21:09:39.627Z,10.20
2019-05-15T21:12:09.868Z,10.30
2019-05-15T21:14:40.071Z,10.30
2019-05-15T21:17:09.600Z,10.30
2019-05-15T21:19:39.212Z,10.30
2019-05-15T21:22:10.889Z,10.30
2019-05-15T21:24:39.732Z,10.30
2019-05-15T21:27:09.118Z,10.30
2019-05-15T21:29:40.506Z,10.30
2019-05-15T21:32:09.563Z,10.30
2019-05-15T21:34:44.134Z,10.30
2019-05-15T21:37:10.251Z,10.40
2019-05-15T21:39:39.626Z,10.40
2019-05-15T21:42:09.086Z,10.40
2019-05-15T21:44:38.448Z,10.40
2019-05-15T21:47:08.233Z,10.40
2019-05-15T21:49:38.837Z,10.40
2019-05-15T21:52:08.441Z,10.50
2019-05-15T21:54:38.574Z,10.40
2019-05-15T21:57:29.145Z,10.40
2019-05-15T21:59:39.071Z,10.50
2019-05-15T22:02:09.671Z,10.40
2019-05-15T22:04:51.275Z,10.50
2019-05-15T22:07:10.152Z,10.50
2019-05-15T22:09:39.607Z,10.50
2019-05-15T22:12:09.103Z,10.50
2019-05-15T22:14:40.003Z,10.50
2019-05-15T22:17:09.428Z,10.40
2019-05-15T22:19:38.836Z,10.30
2019-05-15T22:22:08.803Z,10.30
2019-05-15T22:24:38.242Z,10.20
2019-05-15T22:27:09.656Z,10.30
2019-05-15T22:29:38.733Z,10.20
2019-05-15T22:32:08.239Z,10.20
2019-05-15T22:34:37.607Z,10.30
2019-05-15T22:37:08.954Z,10.20
2019-05-15T22:39:38.516Z,10.20
2019-05-15T22:42:08.250Z,10.20
2019-05-15T22:44:39.176Z,10.20
2019-05-15T22:47:08.528Z,10.10
2019-05-15T22:49:38.125Z,10.20
2019-05-15T22:52:08.587Z,10.10
2019-05-15T22:54:38.687Z,10.10
2019-05-15T22:57:08.158Z,10.10
2019-05-15T22:59:38.213Z,10.10
2019-05-15T23:02:09.233Z,10.20
2019-05-15T23:04:38.681Z,10.10
2019-05-15T23:07:08.281Z,10.10
2019-05-15T23:09:38.436Z,10.10
2019-05-15T23:12:11.333Z,10.10
2019-05-15T23:14:39.113Z,10.10
2019-05-15T23:17:08.503Z,10.10
2019-05-15T23:19:38.599Z,10.00
2019-05-15T23:22:08.426Z,10.00
2019-05-15T23:24:38.749Z,10.00
2019-05-15T23:27:08.894Z,9.90
2019-05-15T23:29:38.611Z,9.90
2019-05-15T23:32:08.055Z,9.90
2019-05-15T23:34:38.672Z,9.90
2019-05-15T23:37:08.338Z,9.80
2019-05-15T23:39:38.033Z,9.90
2019-05-15T23:42:08.902Z,9.80
2019-05-15T23:44:38.417Z,9.80
2019-05-15T23:47:07.765Z,9.80
2019-05-15T23:49:38.181Z,9.80
2019-05-15T23:52:08.911Z,9.80
2019-05-15T23:54:38.601Z,9.80
2019-05-15T23:57:08.875Z,9.80
2019-05-15T23:59:38.561Z,9.80
